sensor_id;sensor_type;location;lat;lon;timestamp;temperature;humidity
7455;HTU21D;3769;51.208;4.454;2023-07-24T00:00:51;18.3;99
7455;HTU21D;3769;51.208;4.454;2023-07-24T00:05:51;18.2;99
7455;HTU21D;3769;51.208;4.454;2023-07-24T00:10:51;18.4;99
7455;HTU21D;3769;51.208;4.454;2023-07-24T00:15:51;18.3;99
7455;HTU21D;3769;51.208;4.454;2023-07-24T00:20:51;18.3;99
7455;HTU21D;3769;51.208;4.454;2023-07-24T00:25:51;18.3;99
7455;HTU21D;3769;51.208;4.454;2023-07-24T00:30:51;18.4;99
7455;HTU21D;3769;51.208;4.454;2023-07-24T00:35:54;18.3;99
7455;HTU21D;3769;51.208;4.454;2023-07-24T00:40:51;18.2;99
7455;HTU21D;3769;51.208;4.454;2023-07-24T00:45:51;18.1;99
7455;HTU21D;3769;51.208;4.454;2023-07-24T00:50:51;18.1;99
7455;HTU21D;3769;51.208;4.454;2023-07-24T00:55:51;18.2;99
7455;HTU21D;3769;51.208;4.454;2023-07-24T01:00:51;18.1;99
7455;HTU21D;3769;51.208;4.454;2023-07-24T01:05:51;18.3;99
7455;HTU21D;3769;51.208;4.454;2023-07-24T01:10:51;18.2;99
7455;HTU21D;3769;51.208;4.454;2023-07-24T01:15:55;18.2;99
7455;HTU21D;3769;51.208;4.454;2023-07-24T01:20:53;18.2;99
7455;HTU21D;3769;51.208;4.454;2023-07-24T01:25:55;18.3;99
7455;HTU21D;3769;51.208;4.454;2023-07-24T01:30:51;18.2;99
7455;HTU21D;3769;51.208;4.454;2023-07-24T01:35:55;18.3;99
7455;HTU21D;3769;51.208;4.454;2023-07-24T01:40:52;18.2;99
7455;HTU21D;3769;51.208;4.454;2023-07-24T01:45:51;18.2;99
7455;HTU21D;3769;51.208;4.454;2023-07-24T01:50:51;18.1;99
7455;HTU21D;3769;51.208;4.454;2023-07-24T01:55:51;17.9;98.9
7455;HTU21D;3769;51.208;4.454;2023-07-24T02:00:54;17.9;98.9
7455;HTU21D;3769;51.208;4.454;2023-07-24T02:05:51;17.8;98.9
7455;HTU21D;3769;51.208;4.454;2023-07-24T02:10:51;17.6;98.9
7455;HTU21D;3769;51.208;4.454;2023-07-24T02:15:51;17.6;98.9
7455;HTU21D;3769;51.208;4.454;2023-07-24T02:20:51;17.5;98.9
7455;HTU21D;3769;51.208;4.454;2023-07-24T02:25:51;17.5;98.9
7455;HTU21D;3769;51.208;4.454;2023-07-24T02:30:51;17.5;98.9
7455;HTU21D;3769;51.208;4.454;2023-07-24T02:35:52;17.5;98.9
7455;HTU21D;3769;51.208;4.454;2023-07-24T02:40:51;17.4;98.9
7455;HTU21D;3769;51.208;4.454;2023-07-24T02:45:51;17.5;98.9
7455;HTU21D;3769;51.208;4.454;2023-07-24T02:50:51;17.4;98.9
7455;HTU21D;3769;51.208;4.454;2023-07-24T02:55:51;17.3;98.8
7455;HTU21D;3769;51.208;4.454;2023-07-24T03:00:51;17.4;98.9
7455;HTU21D;3769;51.208;4.454;2023-07-24T03:05:51;17.4;98.9
7455;HTU21D;3769;51.208;4.454;2023-07-24T03:10:51;17.5;98.9
7455;HTU21D;3769;51.208;4.454;2023-07-24T03:15:53;17.4;98.9
7455;HTU21D;3769;51.208;4.454;2023-07-24T03:20:51;17.4;98.9
7455;HTU21D;3769;51.208;4.454;2023-07-24T03:25:51;17.2;98.8
7455;HTU21D;3769;51.208;4.454;2023-07-24T03:30:51;17.1;98.8
7455;HTU21D;3769;51.208;4.454;2023-07-24T03:35:51;17;98.8
7455;HTU21D;3769;51.208;4.454;2023-07-24T03:40:51;16.9;98.8
7455;HTU21D;3769;51.208;4.454;2023-07-24T03:45:51;16.9;98.8
7455;HTU21D;3769;51.208;4.454;2023-07-24T03:50:57;16.8;98.8
7455;HTU21D;3769;51.208;4.454;2023-07-24T03:55:51;16.7;98.8
7455;HTU21D;3769;51.208;4.454;2023-07-24T04:00:51;16.7;98.7
7455;HTU21D;3769;51.208;4.454;2023-07-24T04:05:51;16.9;98.8
7455;HTU21D;3769;51.208;4.454;2023-07-24T04:10:51;16.8;98.8
7455;HTU21D;3769;51.208;4.454;2023-07-24T04:15:51;16.7;98.8
7455;HTU21D;3769;51.208;4.454;2023-07-24T04:20:51;16.7;98.8
7455;HTU21D;3769;51.208;4.454;2023-07-24T04:25:51;16.8;98.8
7455;HTU21D;3769;51.208;4.454;2023-07-24T04:30:51;16.7;98.8
7455;HTU21D;3769;51.208;4.454;2023-07-24T04:35:51;16.7;98.8
7455;HTU21D;3769;51.208;4.454;2023-07-24T04:40:51;16.7;98.8
7455;HTU21D;3769;51.208;4.454;2023-07-24T04:45:51;16.6;98.7
7455;HTU21D;3769;51.208;4.454;2023-07-24T04:50:53;16.7;98.8
7455;HTU21D;3769;51.208;4.454;2023-07-24T04:55:51;16.7;98.8
7455;HTU21D;3769;51.208;4.454;2023-07-24T05:00:51;16.7;98.8
7455;HTU21D;3769;51.208;4.454;2023-07-24T05:05:54;16.7;98.7
7455;HTU21D;3769;51.208;4.454;2023-07-24T05:10:55;16.7;98.7
7455;HTU21D;3769;51.208;4.454;2023-07-24T05:15:51;16.8;98.8
7455;HTU21D;3769;51.208;4.454;2023-07-24T05:20:51;16.7;98.8
7455;HTU21D;3769;51.208;4.454;2023-07-24T05:26:06;16.7;98.8
7455;HTU21D;3769;51.208;4.454;2023-07-24T05:30:51;16.7;98.8
7455;HTU21D;3769;51.208;4.454;2023-07-24T05:35:51;16.7;98.8
7455;HTU21D;3769;51.208;4.454;2023-07-24T05:40:55;16.7;98.8
7455;HTU21D;3769;51.208;4.454;2023-07-24T05:45:51;16.7;98.8
7455;HTU21D;3769;51.208;4.454;2023-07-24T05:50:51;16.7;98.8
7455;HTU21D;3769;51.208;4.454;2023-07-24T05:55:59;16.6;98.7
7455;HTU21D;3769;51.208;4.454;2023-07-24T06:00:51;16.7;98.8
7455;HTU21D;3769;51.208;4.454;2023-07-24T06:05:52;16.8;98.8
7455;HTU21D;3769;51.208;4.454;2023-07-24T06:10:51;16.7;98.8
7455;HTU21D;3769;51.208;4.454;2023-07-24T06:15:51;16.8;98.8
7455;HTU21D;3769;51.208;4.454;2023-07-24T06:20:52;16.8;98.8
7455;HTU21D;3769;51.208;4.454;2023-07-24T06:25:51;16.9;98.8
7455;HTU21D;3769;51.208;4.454;2023-07-24T06:30:52;17;98.8
7455;HTU21D;3769;51.208;4.454;2023-07-24T06:35:51;17.2;98.8
7455;HTU21D;3769;51.208;4.454;2023-07-24T06:40:51;17.2;98.8
7455;HTU21D;3769;51.208;4.454;2023-07-24T06:45:51;17.3;98.9
7455;HTU21D;3769;51.208;4.454;2023-07-24T06:50:51;17.3;98.9
7455;HTU21D;3769;51.208;4.454;2023-07-24T06:55:51;17.4;98.9
7455;HTU21D;3769;51.208;4.454;2023-07-24T07:00:52;17.5;98.9
7455;HTU21D;3769;51.208;4.454;2023-07-24T07:05:57;17.6;98.9
7455;HTU21D;3769;51.208;4.454;2023-07-24T07:11:00;17.6;98.9
7455;HTU21D;3769;51.208;4.454;2023-07-24T07:15:51;17.8;98.9
7455;HTU21D;3769;51.208;4.454;2023-07-24T07:20:52;17.6;98.9
7455;HTU21D;3769;51.208;4.454;2023-07-24T07:25:51;17.5;98.9
7455;HTU21D;3769;51.208;4.454;2023-07-24T07:30:51;17.5;98.9
7455;HTU21D;3769;51.208;4.454;2023-07-24T07:35:51;17.4;98.9
7455;HTU21D;3769;51.208;4.454;2023-07-24T07:40:51;17.4;98.9
7455;HTU21D;3769;51.208;4.454;2023-07-24T07:45:51;17.2;98.8
7455;HTU21D;3769;51.208;4.454;2023-07-24T07:50:51;17.1;98.8
7455;HTU21D;3769;51.208;4.454;2023-07-24T07:55:55;17.2;98.8
7455;HTU21D;3769;51.208;4.454;2023-07-24T08:00:51;17.3;98.8
7455;HTU21D;3769;51.208;4.454;2023-07-24T08:05:51;17.5;98.9
7455;HTU21D;3769;51.208;4.454;2023-07-24T08:10:51;17.7;98.9
7455;HTU21D;3769;51.208;4.454;2023-07-24T08:15:51;17.9;98.9
7455;HTU21D;3769;51.208;4.454;2023-07-24T08:20:51;17.9;98.9
7455;HTU21D;3769;51.208;4.454;2023-07-24T08:25:53;18.1;99
7455;HTU21D;3769;51.208;4.454;2023-07-24T08:30:59;18.2;99
7455;HTU21D;3769;51.208;4.454;2023-07-24T08:36:00;18.1;99
7455;HTU21D;3769;51.208;4.454;2023-07-24T08:41:08;18;98.9
7455;HTU21D;3769;51.208;4.454;2023-07-24T08:45:51;18;98.9
7455;HTU21D;3769;51.208;4.454;2023-07-24T08:50:51;18.1;99
7455;HTU21D;3769;51.208;4.454;2023-07-24T08:55:51;18.1;99
7455;HTU21D;3769;51.208;4.454;2023-07-24T09:00:51;18.3;99
7455;HTU21D;3769;51.208;4.454;2023-07-24T09:05:51;18;98.9
7455;HTU21D;3769;51.208;4.454;2023-07-24T09:10:51;17.9;98.9
7455;HTU21D;3769;51.208;4.454;2023-07-24T09:15:51;17.8;98.9
7455;HTU21D;3769;51.208;4.454;2023-07-24T09:20:51;18;98.9
7455;HTU21D;3769;51.208;4.454;2023-07-24T09:25:51;18.2;99
7455;HTU21D;3769;51.208;4.454;2023-07-24T09:30:52;18.2;99
7455;HTU21D;3769;51.208;4.454;2023-07-24T09:35:59;18.2;99
7455;HTU21D;3769;51.208;4.454;2023-07-24T09:40:52;18.5;99
7455;HTU21D;3769;51.208;4.454;2023-07-24T09:45:52;18.6;99
7455;HTU21D;3769;51.208;4.454;2023-07-24T09:50:53;18.7;99
7455;HTU21D;3769;51.208;4.454;2023-07-24T09:55:54;18.7;99.1
7455;HTU21D;3769;51.208;4.454;2023-07-24T10:00:52;18.7;99.1
7455;HTU21D;3769;51.208;4.454;2023-07-24T10:05:52;19.1;99.1
7455;HTU21D;3769;51.208;4.454;2023-07-24T10:10:51;19.2;99.1
7455;HTU21D;3769;51.208;4.454;2023-07-24T10:15:51;19.1;99.1
7455;HTU21D;3769;51.208;4.454;2023-07-24T10:20:59;19.2;99.1
7455;HTU21D;3769;51.208;4.454;2023-07-24T10:25:51;19.2;99.1
7455;HTU21D;3769;51.208;4.454;2023-07-24T10:30:54;19.3;99.2
7455;HTU21D;3769;51.208;4.454;2023-07-24T10:35:53;19.2;99.1
7455;HTU21D;3769;51.208;4.454;2023-07-24T10:41:00;19.3;99.1
7455;HTU21D;3769;51.208;4.454;2023-07-24T10:45:52;19;99.1
7455;HTU21D;3769;51.208;4.454;2023-07-24T10:50:52;18.9;99.1
7455;HTU21D;3769;51.208;4.454;2023-07-24T10:55:51;19;99.1
7455;HTU21D;3769;51.208;4.454;2023-07-24T11:00:51;19;99.1
7455;HTU21D;3769;51.208;4.454;2023-07-24T11:05:51;18.8;99.1
7455;HTU21D;3769;51.208;4.454;2023-07-24T11:10:52;19;99.1
7455;HTU21D;3769;51.208;4.454;2023-07-24T11:15:52;19.2;99.1
7455;HTU21D;3769;51.208;4.454;2023-07-24T11:20:52;19.4;99.2
7455;HTU21D;3769;51.208;4.454;2023-07-24T11:25:52;19.4;99.2
7455;HTU21D;3769;51.208;4.454;2023-07-24T11:30:51;19.3;99.1
7455;HTU21D;3769;51.208;4.454;2023-07-24T11:35:51;19.3;99.1
7455;HTU21D;3769;51.208;4.454;2023-07-24T11:40:53;19.7;99.2
7455;HTU21D;3769;51.208;4.454;2023-07-24T11:45:52;20.1;99.3
7455;HTU21D;3769;51.208;4.454;2023-07-24T11:50:52;20.5;99.3
7455;HTU21D;3769;51.208;4.454;2023-07-24T11:55:52;20.5;99.3
7455;HTU21D;3769;51.208;4.454;2023-07-24T12:00:51;20.7;99.4
7455;HTU21D;3769;51.208;4.454;2023-07-24T12:05:51;20.5;99.3
7455;HTU21D;3769;51.208;4.454;2023-07-24T12:10:51;20.3;99.3
7455;HTU21D;3769;51.208;4.454;2023-07-24T12:15:51;20.3;99.3
7455;HTU21D;3769;51.208;4.454;2023-07-24T12:20:51;20.1;99.3
7455;HTU21D;3769;51.208;4.454;2023-07-24T12:25:52;20.1;99.3
7455;HTU21D;3769;51.208;4.454;2023-07-24T12:30:51;19.8;99.2
7455;HTU21D;3769;51.208;4.454;2023-07-24T12:35:51;19.6;99.2
7455;HTU21D;3769;51.208;4.454;2023-07-24T12:40:51;19.5;99.2
7455;HTU21D;3769;51.208;4.454;2023-07-24T12:45:51;19.8;99.2
7455;HTU21D;3769;51.208;4.454;2023-07-24T12:50:51;20.3;99.3
7455;HTU21D;3769;51.208;4.454;2023-07-24T12:55:51;21;99.4
7455;HTU21D;3769;51.208;4.454;2023-07-24T13:00:51;22.2;95.7
7455;HTU21D;3769;51.208;4.454;2023-07-24T13:05:51;23.3;88.3
7455;HTU21D;3769;51.208;4.454;2023-07-24T13:10:51;21.8;92.4
7455;HTU21D;3769;51.208;4.454;2023-07-24T13:15:51;21.1;99.4
7455;HTU21D;3769;51.208;4.454;2023-07-24T13:20:52;20.3;99.3
7455;HTU21D;3769;51.208;4.454;2023-07-24T13:25:52;19.2;99.1
7455;HTU21D;3769;51.208;4.454;2023-07-24T13:30:51;18.9;99.1
7455;HTU21D;3769;51.208;4.454;2023-07-24T13:35:52;18.4;99
7455;HTU21D;3769;51.208;4.454;2023-07-24T13:40:51;18.2;99
7455;HTU21D;3769;51.208;4.454;2023-07-24T13:45:51;18;98.9
7455;HTU21D;3769;51.208;4.454;2023-07-24T13:50:52;17.7;98.9
7455;HTU21D;3769;51.208;4.454;2023-07-24T13:55:51;17.8;98.9
7455;HTU21D;3769;51.208;4.454;2023-07-24T14:00:51;18;98.9
7455;HTU21D;3769;51.208;4.454;2023-07-24T14:05:51;18.2;99
7455;HTU21D;3769;51.208;4.454;2023-07-24T14:10:51;18;99
7455;HTU21D;3769;51.208;4.454;2023-07-24T14:15:51;18.5;99
7455;HTU21D;3769;51.208;4.454;2023-07-24T14:20:51;18.9;99.1
7455;HTU21D;3769;51.208;4.454;2023-07-24T14:25:51;18.6;99
7455;HTU21D;3769;51.208;4.454;2023-07-24T14:30:51;18.4;99
7455;HTU21D;3769;51.208;4.454;2023-07-24T14:35:51;18.3;99
7455;HTU21D;3769;51.208;4.454;2023-07-24T14:40:51;18.4;99
7455;HTU21D;3769;51.208;4.454;2023-07-24T14:45:51;18.5;99
7455;HTU21D;3769;51.208;4.454;2023-07-24T14:50:51;18.6;99
7455;HTU21D;3769;51.208;4.454;2023-07-24T14:55:51;18.6;99
7455;HTU21D;3769;51.208;4.454;2023-07-24T15:00:52;19;99.1
7455;HTU21D;3769;51.208;4.454;2023-07-24T15:05:51;19.5;99.2
7455;HTU21D;3769;51.208;4.454;2023-07-24T15:10:51;19.8;99.2
7455;HTU21D;3769;51.208;4.454;2023-07-24T15:15:51;19.2;99.1
7455;HTU21D;3769;51.208;4.454;2023-07-24T15:20:51;18.9;99.1
7455;HTU21D;3769;51.208;4.454;2023-07-24T15:25:51;18.4;99
7455;HTU21D;3769;51.208;4.454;2023-07-24T15:30:51;18.1;99
7455;HTU21D;3769;51.208;4.454;2023-07-24T15:35:51;17.8;98.9
7455;HTU21D;3769;51.208;4.454;2023-07-24T15:40:51;17.7;98.9
7455;HTU21D;3769;51.208;4.454;2023-07-24T15:45:51;17.4;98.9
7455;HTU21D;3769;51.208;4.454;2023-07-24T15:50:51;17.4;98.9
7455;HTU21D;3769;51.208;4.454;2023-07-24T15:55:51;17.6;98.9
7455;HTU21D;3769;51.208;4.454;2023-07-24T16:00:52;18.1;99
7455;HTU21D;3769;51.208;4.454;2023-07-24T16:05:52;17.9;98.9
7455;HTU21D;3769;51.208;4.454;2023-07-24T16:10:51;18;99
7455;HTU21D;3769;51.208;4.454;2023-07-24T16:15:51;18;99
7455;HTU21D;3769;51.208;4.454;2023-07-24T16:20:52;18.1;99
7455;HTU21D;3769;51.208;4.454;2023-07-24T16:25:52;18.2;99
7455;HTU21D;3769;51.208;4.454;2023-07-24T16:30:52;18.2;99
7455;HTU21D;3769;51.208;4.454;2023-07-24T16:35:51;18.1;99
7455;HTU21D;3769;51.208;4.454;2023-07-24T16:40:51;18;99
7455;HTU21D;3769;51.208;4.454;2023-07-24T16:45:51;18;98.9
7455;HTU21D;3769;51.208;4.454;2023-07-24T16:50:52;18;98.9
7455;HTU21D;3769;51.208;4.454;2023-07-24T16:55:52;18.1;99
7455;HTU21D;3769;51.208;4.454;2023-07-24T17:00:52;18.2;99
7455;HTU21D;3769;51.208;4.454;2023-07-24T17:05:51;18.1;99
7455;HTU21D;3769;51.208;4.454;2023-07-24T17:10:52;18;99
7455;HTU21D;3769;51.208;4.454;2023-07-24T17:15:51;18;98.9
7455;HTU21D;3769;51.208;4.454;2023-07-24T17:20:51;18.1;99
7455;HTU21D;3769;51.208;4.454;2023-07-24T17:25:51;18.2;99
7455;HTU21D;3769;51.208;4.454;2023-07-24T17:30:51;18.2;99
7455;HTU21D;3769;51.208;4.454;2023-07-24T17:35:52;18.1;99
7455;HTU21D;3769;51.208;4.454;2023-07-24T17:40:52;18.1;99
7455;HTU21D;3769;51.208;4.454;2023-07-24T17:45:52;18;98.9
7455;HTU21D;3769;51.208;4.454;2023-07-24T17:50:51;17.9;98.9
7455;HTU21D;3769;51.208;4.454;2023-07-24T17:55:51;17.8;98.9
7455;HTU21D;3769;51.208;4.454;2023-07-24T18:00:52;17.9;98.9
7455;HTU21D;3769;51.208;4.454;2023-07-24T18:05:52;17.7;98.9
7455;HTU21D;3769;51.208;4.454;2023-07-24T18:10:52;17.8;98.9
7455;HTU21D;3769;51.208;4.454;2023-07-24T18:15:52;17.7;98.9
7455;HTU21D;3769;51.208;4.454;2023-07-24T18:20:52;17.6;98.9
7455;HTU21D;3769;51.208;4.454;2023-07-24T18:25:52;17.7;98.9
7455;HTU21D;3769;51.208;4.454;2023-07-24T18:30:51;17.9;98.9
7455;HTU21D;3769;51.208;4.454;2023-07-24T18:35:52;17.8;98.9
7455;HTU21D;3769;51.208;4.454;2023-07-24T18:40:52;17.6;98.9
7455;HTU21D;3769;51.208;4.454;2023-07-24T18:45:51;17.6;98.9
7455;HTU21D;3769;51.208;4.454;2023-07-24T18:50:52;17.5;98.9
7455;HTU21D;3769;51.208;4.454;2023-07-24T18:55:52;17.7;98.9
7455;HTU21D;3769;51.208;4.454;2023-07-24T19:00:52;17.7;98.9
7455;HTU21D;3769;51.208;4.454;2023-07-24T19:05:51;17.7;98.9
7455;HTU21D;3769;51.208;4.454;2023-07-24T19:10:51;17.6;98.9
7455;HTU21D;3769;51.208;4.454;2023-07-24T19:15:52;17.6;98.9
7455;HTU21D;3769;51.208;4.454;2023-07-24T19:20:52;17.4;98.9
7455;HTU21D;3769;51.208;4.454;2023-07-24T19:25:52;17.4;98.9
7455;HTU21D;3769;51.208;4.454;2023-07-24T19:30:52;17.2;98.8
7455;HTU21D;3769;51.208;4.454;2023-07-24T19:35:59;17.3;98.8
7455;HTU21D;3769;51.208;4.454;2023-07-24T19:40:59;17;98.8
7455;HTU21D;3769;51.208;4.454;2023-07-24T19:45:52;17.1;98.8
7455;HTU21D;3769;51.208;4.454;2023-07-24T19:50:53;17.2;98.8
7455;HTU21D;3769;51.208;4.454;2023-07-24T19:55:52;17.3;98.8
7455;HTU21D;3769;51.208;4.454;2023-07-24T20:00:52;17.2;98.8
7455;HTU21D;3769;51.208;4.454;2023-07-24T20:05:52;17.3;98.8
7455;HTU21D;3769;51.208;4.454;2023-07-24T20:10:53;17.1;98.8
7455;HTU21D;3769;51.208;4.454;2023-07-24T20:15:52;17.1;98.8
7455;HTU21D;3769;51.208;4.454;2023-07-24T20:20:51;17;98.8
7455;HTU21D;3769;51.208;4.454;2023-07-24T20:25:51;17.1;98.8
7455;HTU21D;3769;51.208;4.454;2023-07-24T20:30:52;17;98.8
7455;HTU21D;3769;51.208;4.454;2023-07-24T20:35:52;17.1;98.8
7455;HTU21D;3769;51.208;4.454;2023-07-24T20:40:52;16.9;98.8
7455;HTU21D;3769;51.208;4.454;2023-07-24T20:45:51;16.8;98.8
7455;HTU21D;3769;51.208;4.454;2023-07-24T20:50:52;16.7;98.8
7455;HTU21D;3769;51.208;4.454;2023-07-24T20:55:52;16.5;98.7
7455;HTU21D;3769;51.208;4.454;2023-07-24T21:00:51;16.7;98.8
7455;HTU21D;3769;51.208;4.454;2023-07-24T21:05:52;16.6;98.7
7455;HTU21D;3769;51.208;4.454;2023-07-24T21:10:52;16.7;98.8
7455;HTU21D;3769;51.208;4.454;2023-07-24T21:15:51;16.5;98.7
7455;HTU21D;3769;51.208;4.454;2023-07-24T21:20:51;16.6;98.7
7455;HTU21D;3769;51.208;4.454;2023-07-24T21:25:52;16.4;98.7
7455;HTU21D;3769;51.208;4.454;2023-07-24T21:30:51;16.6;98.7
7455;HTU21D;3769;51.208;4.454;2023-07-24T21:36:01;16.5;98.7
7455;HTU21D;3769;51.208;4.454;2023-07-24T21:40:52;16.6;98.7
7455;HTU21D;3769;51.208;4.454;2023-07-24T21:45:52;16.6;98.7
7455;HTU21D;3769;51.208;4.454;2023-07-24T21:50:52;16.5;98.7
7455;HTU21D;3769;51.208;4.454;2023-07-24T21:55:52;16.5;98.7
7455;HTU21D;3769;51.208;4.454;2023-07-24T22:00:52;16.5;98.7
7455;HTU21D;3769;51.208;4.454;2023-07-24T22:05:51;16.3;98.7
7455;HTU21D;3769;51.208;4.454;2023-07-24T22:10:52;16.4;98.7
7455;HTU21D;3769;51.208;4.454;2023-07-24T22:15:52;16.3;98.7
7455;HTU21D;3769;51.208;4.454;2023-07-24T22:20:51;16.3;98.7
7455;HTU21D;3769;51.208;4.454;2023-07-24T22:25:52;16.3;98.7
7455;HTU21D;3769;51.208;4.454;2023-07-24T22:30:52;16.3;98.7
7455;HTU21D;3769;51.208;4.454;2023-07-24T22:35:59;16.3;98.7
7455;HTU21D;3769;51.208;4.454;2023-07-24T22:40:52;16.3;98.7
7455;HTU21D;3769;51.208;4.454;2023-07-24T22:45:52;16.3;98.7
7455;HTU21D;3769;51.208;4.454;2023-07-24T22:50:52;16.2;98.7
7455;HTU21D;3769;51.208;4.454;2023-07-24T22:55:52;16.2;98.7
7455;HTU21D;3769;51.208;4.454;2023-07-24T23:00:52;16.2;98.7
7455;HTU21D;3769;51.208;4.454;2023-07-24T23:05:52;16.1;98.7
7455;HTU21D;3769;51.208;4.454;2023-07-24T23:10:52;16.1;98.7
7455;HTU21D;3769;51.208;4.454;2023-07-24T23:15:52;16.2;98.7
7455;HTU21D;3769;51.208;4.454;2023-07-24T23:20:52;16;98.7
7455;HTU21D;3769;51.208;4.454;2023-07-24T23:25:52;16;98.6
7455;HTU21D;3769;51.208;4.454;2023-07-24T23:30:52;15.9;98.6
7455;HTU21D;3769;51.208;4.454;2023-07-24T23:35:52;16;98.7
7455;HTU21D;3769;51.208;4.454;2023-07-24T23:40:59;15.9;98.6
7455;HTU21D;3769;51.208;4.454;2023-07-24T23:45:52;16;98.6
7455;HTU21D;3769;51.208;4.454;2023-07-24T23:50:52;15.9;98.6
7455;HTU21D;3769;51.208;4.454;2023-07-24T23:55:52;15.9;98.6
